sensor_id;sensor_type;location;lat;lon;timestamp;temperature;humidity
29211;DHT22;16250;49.932;10.980;2022-10-26T00:02:17;8.90;99.90
29211;DHT22;16250;49.932;10.980;2022-10-26T00:04:43;9.00;99.90
29211;DHT22;16250;49.932;10.980;2022-10-26T00:07:08;9.00;99.90
29211;DHT22;16250;49.932;10.980;2022-10-26T00:09:34;9.10;99.90
29211;DHT22;16250;49.932;10.980;2022-10-26T00:11:59;9.00;99.90
29211;DHT22;16250;49.932;10.980;2022-10-26T00:14:25;9.00;99.90
29211;DHT22;16250;49.932;10.980;2022-10-26T00:16:51;8.90;99.90
29211;DHT22;16250;49.932;10.980;2022-10-26T00:19:17;8.90;99.90
29211;DHT22;16250;49.932;10.980;2022-10-26T00:21:42;8.90;99.90
29211;DHT22;16250;49.932;10.980;2022-10-26T00:24:10;8.90;99.90
29211;DHT22;16250;49.932;10.980;2022-10-26T00:26:36;8.90;99.90
29211;DHT22;16250;49.932;10.980;2022-10-26T00:29:02;9.00;99.90
29211;DHT22;16250;49.932;10.980;2022-10-26T00:31:28;8.90;99.90
29211;DHT22;16250;49.932;10.980;2022-10-26T00:33:54;8.90;99.90
29211;DHT22;16250;49.932;10.980;2022-10-26T00:36:21;8.90;99.90
29211;DHT22;16250;49.932;10.980;2022-10-26T00:38:48;8.80;99.90
29211;DHT22;16250;49.932;10.980;2022-10-26T00:41:16;8.70;99.90
29211;DHT22;16250;49.932;10.980;2022-10-26T00:43:41;8.70;99.90
29211;DHT22;16250;49.932;10.980;2022-10-26T00:46:12;8.70;99.90
29211;DHT22;16250;49.932;10.980;2022-10-26T00:48:42;8.70;99.90
29211;DHT22;16250;49.932;10.980;2022-10-26T00:51:15;8.70;99.90
29211;DHT22;16250;49.932;10.980;2022-10-26T00:53:41;8.80;99.90
29211;DHT22;16250;49.932;10.980;2022-10-26T00:56:07;8.90;99.90
29211;DHT22;16250;49.932;10.980;2022-10-26T00:58:34;8.80;99.90
29211;DHT22;16250;49.932;10.980;2022-10-26T01:01:00;8.80;99.90
29211;DHT22;16250;49.932;10.980;2022-10-26T01:03:25;8.90;99.90
29211;DHT22;16250;49.932;10.980;2022-10-26T01:05:55;8.90;99.90
29211;DHT22;16250;49.932;10.980;2022-10-26T01:08:21;9.00;99.90
29211;DHT22;16250;49.932;10.980;2022-10-26T01:10:47;9.10;99.90
29211;DHT22;16250;49.932;10.980;2022-10-26T01:13:15;9.10;99.90
29211;DHT22;16250;49.932;10.980;2022-10-26T01:15:55;9.20;99.90
29211;DHT22;16250;49.932;10.980;2022-10-26T01:29:31;9.20;99.90
29211;DHT22;16250;49.932;10.980;2022-10-26T01:32:30;9.20;99.90
29211;DHT22;16250;49.932;10.980;2022-10-26T01:35:09;9.30;99.90
29211;DHT22;16250;49.932;10.980;2022-10-26T01:37:45;9.30;99.90
29211;DHT22;16250;49.932;10.980;2022-10-26T01:40:19;9.30;99.90
29211;DHT22;16250;49.932;10.980;2022-10-26T01:42:49;9.30;99.90
29211;DHT22;16250;49.932;10.980;2022-10-26T01:45:16;9.20;99.90
29211;DHT22;16250;49.932;10.980;2022-10-26T01:47:43;9.20;99.90
29211;DHT22;16250;49.932;10.980;2022-10-26T01:50:10;9.20;99.90
29211;DHT22;16250;49.932;10.980;2022-10-26T01:52:36;9.30;99.90
29211;DHT22;16250;49.932;10.980;2022-10-26T01:55:04;9.20;99.90
29211;DHT22;16250;49.932;10.980;2022-10-26T01:57:35;9.20;99.90
29211;DHT22;16250;49.932;10.980;2022-10-26T02:00:06;9.10;99.90
29211;DHT22;16250;49.932;10.980;2022-10-26T02:02:48;9.00;99.90
29211;DHT22;16250;49.932;10.980;2022-10-26T02:05:42;8.90;99.90
29211;DHT22;16250;49.932;10.980;2022-10-26T02:13:56;8.80;99.90
29211;DHT22;16250;49.932;10.980;2022-10-26T02:21:44;9.10;99.90
29211;DHT22;16250;49.932;10.980;2022-10-26T02:24:11;9.10;99.90
29211;DHT22;16250;49.932;10.980;2022-10-26T02:26:40;9.20;99.90
29211;DHT22;16250;49.932;10.980;2022-10-26T02:29:10;9.20;99.90
29211;DHT22;16250;49.932;10.980;2022-10-26T02:31:37;9.10;99.90
29211;DHT22;16250;49.932;10.980;2022-10-26T02:34:06;8.90;99.90
29211;DHT22;16250;49.932;10.980;2022-10-26T02:36:35;8.90;99.90
29211;DHT22;16250;49.932;10.980;2022-10-26T02:39:04;9.00;99.90
29211;DHT22;16250;49.932;10.980;2022-10-26T02:41:33;9.00;99.90
29211;DHT22;16250;49.932;10.980;2022-10-26T02:46:29;8.60;99.90
29211;DHT22;16250;49.932;10.980;2022-10-26T02:48:55;8.40;99.90
29211;DHT22;16250;49.932;10.980;2022-10-26T02:51:44;8.40;99.90
29211;DHT22;16250;49.932;10.980;2022-10-26T02:54:14;8.60;99.90
29211;DHT22;16250;49.932;10.980;2022-10-26T02:56:50;8.60;99.90
29211;DHT22;16250;49.932;10.980;2022-10-26T02:59:19;8.50;99.90
29211;DHT22;16250;49.932;10.980;2022-10-26T03:01:46;8.60;99.90
29211;DHT22;16250;49.932;10.980;2022-10-26T03:04:11;8.70;99.90
29211;DHT22;16250;49.932;10.980;2022-10-26T03:06:37;8.80;99.90
29211;DHT22;16250;49.932;10.980;2022-10-26T03:09:03;8.90;99.90
29211;DHT22;16250;49.932;10.980;2022-10-26T03:11:28;8.90;99.90
29211;DHT22;16250;49.932;10.980;2022-10-26T03:13:54;8.90;99.90
29211;DHT22;16250;49.932;10.980;2022-10-26T03:16:19;8.90;99.90
29211;DHT22;16250;49.932;10.980;2022-10-26T03:18:45;9.00;99.90
29211;DHT22;16250;49.932;10.980;2022-10-26T03:21:10;9.10;99.90
29211;DHT22;16250;49.932;10.980;2022-10-26T03:23:36;9.20;99.90
29211;DHT22;16250;49.932;10.980;2022-10-26T03:26:02;9.20;99.90
29211;DHT22;16250;49.932;10.980;2022-10-26T03:28:27;9.30;99.90
29211;DHT22;16250;49.932;10.980;2022-10-26T03:30:53;9.30;99.90
29211;DHT22;16250;49.932;10.980;2022-10-26T03:33:18;9.50;99.90
29211;DHT22;16250;49.932;10.980;2022-10-26T03:35:44;9.30;99.90
29211;DHT22;16250;49.932;10.980;2022-10-26T03:38:10;9.10;99.90
29211;DHT22;16250;49.932;10.980;2022-10-26T03:40:35;9.00;99.90
29211;DHT22;16250;49.932;10.980;2022-10-26T03:43:02;9.00;99.90
29211;DHT22;16250;49.932;10.980;2022-10-26T03:45:27;9.10;99.90
29211;DHT22;16250;49.932;10.980;2022-10-26T03:47:53;9.10;99.90
29211;DHT22;16250;49.932;10.980;2022-10-26T03:50:20;9.10;99.90
29211;DHT22;16250;49.932;10.980;2022-10-26T03:52:47;9.20;99.90
29211;DHT22;16250;49.932;10.980;2022-10-26T03:55:13;9.20;99.90
29211;DHT22;16250;49.932;10.980;2022-10-26T03:57:43;9.30;99.90
29211;DHT22;16250;49.932;10.980;2022-10-26T04:00:13;9.30;99.90
29211;DHT22;16250;49.932;10.980;2022-10-26T04:02:52;9.40;99.90
29211;DHT22;16250;49.932;10.980;2022-10-26T04:05:17;9.50;99.90
29211;DHT22;16250;49.932;10.980;2022-10-26T04:07:43;9.50;99.90
29211;DHT22;16250;49.932;10.980;2022-10-26T04:10:09;9.60;99.90
29211;DHT22;16250;49.932;10.980;2022-10-26T04:12:36;9.50;99.90
29211;DHT22;16250;49.932;10.980;2022-10-26T04:15:02;9.20;99.90
29211;DHT22;16250;49.932;10.980;2022-10-26T04:17:28;8.90;99.90
29211;DHT22;16250;49.932;10.980;2022-10-26T04:19:54;8.80;99.90
29211;DHT22;16250;49.932;10.980;2022-10-26T04:22:19;8.90;99.90
29211;DHT22;16250;49.932;10.980;2022-10-26T04:24:45;8.90;99.90
29211;DHT22;16250;49.932;10.980;2022-10-26T04:27:10;8.90;99.90
29211;DHT22;16250;49.932;10.980;2022-10-26T04:29:36;9.00;99.90
29211;DHT22;16250;49.932;10.980;2022-10-26T04:32:01;9.00;99.90
29211;DHT22;16250;49.932;10.980;2022-10-26T04:34:27;9.00;99.90
29211;DHT22;16250;49.932;10.980;2022-10-26T04:36:53;9.10;99.90
29211;DHT22;16250;49.932;10.980;2022-10-26T04:39:19;9.20;99.90
29211;DHT22;16250;49.932;10.980;2022-10-26T04:41:44;9.30;99.90
29211;DHT22;16250;49.932;10.980;2022-10-26T04:44:10;9.30;99.90
29211;DHT22;16250;49.932;10.980;2022-10-26T04:46:35;9.40;99.90
29211;DHT22;16250;49.932;10.980;2022-10-26T04:49:01;9.40;99.90
29211;DHT22;16250;49.932;10.980;2022-10-26T04:51:26;9.50;99.90
29211;DHT22;16250;49.932;10.980;2022-10-26T04:53:53;9.50;99.90
29211;DHT22;16250;49.932;10.980;2022-10-26T04:56:19;9.50;99.90
29211;DHT22;16250;49.932;10.980;2022-10-26T04:58:44;9.50;99.90
29211;DHT22;16250;49.932;10.980;2022-10-26T05:01:10;9.40;99.90
29211;DHT22;16250;49.932;10.980;2022-10-26T05:03:35;9.40;99.90
29211;DHT22;16250;49.932;10.980;2022-10-26T05:06:01;9.50;99.90
29211;DHT22;16250;49.932;10.980;2022-10-26T05:08:27;9.50;99.90
29211;DHT22;16250;49.932;10.980;2022-10-26T05:10:54;9.50;99.90
29211;DHT22;16250;49.932;10.980;2022-10-26T05:13:19;9.50;99.90
29211;DHT22;16250;49.932;10.980;2022-10-26T05:15:45;9.50;99.90
29211;DHT22;16250;49.932;10.980;2022-10-26T05:18:10;9.50;99.90
29211;DHT22;16250;49.932;10.980;2022-10-26T05:20:36;9.30;99.90
29211;DHT22;16250;49.932;10.980;2022-10-26T05:23:06;9.30;99.90
29211;DHT22;16250;49.932;10.980;2022-10-26T05:25:35;9.40;99.90
29211;DHT22;16250;49.932;10.980;2022-10-26T05:28:03;9.50;99.90
29211;DHT22;16250;49.932;10.980;2022-10-26T05:30:30;9.60;99.90
29211;DHT22;16250;49.932;10.980;2022-10-26T05:33:00;9.70;99.90
29211;DHT22;16250;49.932;10.980;2022-10-26T05:35:27;9.70;99.90
29211;DHT22;16250;49.932;10.980;2022-10-26T05:37:53;9.70;99.90
29211;DHT22;16250;49.932;10.980;2022-10-26T05:40:19;9.70;99.90
29211;DHT22;16250;49.932;10.980;2022-10-26T05:42:44;9.70;99.90
29211;DHT22;16250;49.932;10.980;2022-10-26T05:45:11;9.70;99.90
29211;DHT22;16250;49.932;10.980;2022-10-26T05:47:40;9.80;99.90
29211;DHT22;16250;49.932;10.980;2022-10-26T05:50:07;9.80;99.90
29211;DHT22;16250;49.932;10.980;2022-10-26T05:52:46;9.90;99.90
29211;DHT22;16250;49.932;10.980;2022-10-26T05:55:14;9.90;99.90
29211;DHT22;16250;49.932;10.980;2022-10-26T05:57:40;9.80;99.90
29211;DHT22;16250;49.932;10.980;2022-10-26T06:00:15;9.90;99.90
29211;DHT22;16250;49.932;10.980;2022-10-26T06:03:15;9.90;99.90
29211;DHT22;16250;49.932;10.980;2022-10-26T06:05:55;9.90;99.90
29211;DHT22;16250;49.932;10.980;2022-10-26T06:08:23;9.90;99.90
29211;DHT22;16250;49.932;10.980;2022-10-26T06:10:50;9.90;99.90
29211;DHT22;16250;49.932;10.980;2022-10-26T06:13:17;10.00;99.90
29211;DHT22;16250;49.932;10.980;2022-10-26T06:18:38;9.70;99.90
29211;DHT22;16250;49.932;10.980;2022-10-26T06:21:34;9.60;99.90
29211;DHT22;16250;49.932;10.980;2022-10-26T06:26:37;9.50;99.90
29211;DHT22;16250;49.932;10.980;2022-10-26T06:29:20;9.50;99.90
29211;DHT22;16250;49.932;10.980;2022-10-26T06:31:47;9.60;99.90
29211;DHT22;16250;49.932;10.980;2022-10-26T06:34:31;9.50;99.90
29211;DHT22;16250;49.932;10.980;2022-10-26T06:36:58;9.70;99.90
29211;DHT22;16250;49.932;10.980;2022-10-26T06:39:26;9.80;99.90
29211;DHT22;16250;49.932;10.980;2022-10-26T06:41:53;9.80;99.90
29211;DHT22;16250;49.932;10.980;2022-10-26T06:44:22;9.90;99.90
29211;DHT22;16250;49.932;10.980;2022-10-26T06:46:53;9.90;99.90
29211;DHT22;16250;49.932;10.980;2022-10-26T06:49:30;10.00;99.90
29211;DHT22;16250;49.932;10.980;2022-10-26T06:52:13;10.10;99.90
29211;DHT22;16250;49.932;10.980;2022-10-26T06:57:18;10.30;99.90
29211;DHT22;16250;49.932;10.980;2022-10-26T06:59:55;10.30;99.90
29211;DHT22;16250;49.932;10.980;2022-10-26T07:02:21;10.40;99.90
29211;DHT22;16250;49.932;10.980;2022-10-26T07:04:47;10.40;99.90
29211;DHT22;16250;49.932;10.980;2022-10-26T07:07:17;10.30;99.90
29211;DHT22;16250;49.932;10.980;2022-10-26T07:09:43;10.40;99.90
29211;DHT22;16250;49.932;10.980;2022-10-26T07:12:09;10.30;99.90
29211;DHT22;16250;49.932;10.980;2022-10-26T07:14:34;10.20;99.90
29211;DHT22;16250;49.932;10.980;2022-10-26T07:17:00;10.30;99.90
29211;DHT22;16250;49.932;10.980;2022-10-26T07:19:26;10.30;99.90
29211;DHT22;16250;49.932;10.980;2022-10-26T07:21:55;10.40;99.90
29211;DHT22;16250;49.932;10.980;2022-10-26T07:24:21;10.50;99.90
29211;DHT22;16250;49.932;10.980;2022-10-26T07:26:47;10.60;99.90
29211;DHT22;16250;49.932;10.980;2022-10-26T07:29:13;10.60;99.90
29211;DHT22;16250;49.932;10.980;2022-10-26T07:31:40;10.70;99.90
29211;DHT22;16250;49.932;10.980;2022-10-26T07:34:06;10.90;99.90
29211;DHT22;16250;49.932;10.980;2022-10-26T07:36:32;11.10;99.90
29211;DHT22;16250;49.932;10.980;2022-10-26T07:38:58;11.30;99.90
29211;DHT22;16250;49.932;10.980;2022-10-26T07:41:23;11.30;99.90
29211;DHT22;16250;49.932;10.980;2022-10-26T07:43:49;11.30;99.90
29211;DHT22;16250;49.932;10.980;2022-10-26T07:46:15;11.40;99.90
29211;DHT22;16250;49.932;10.980;2022-10-26T07:48:41;11.50;99.90
29211;DHT22;16250;49.932;10.980;2022-10-26T07:51:07;11.60;99.90
29211;DHT22;16250;49.932;10.980;2022-10-26T07:53:33;11.70;99.90
29211;DHT22;16250;49.932;10.980;2022-10-26T07:55:58;11.70;99.90
29211;DHT22;16250;49.932;10.980;2022-10-26T07:58:24;11.80;99.90
29211;DHT22;16250;49.932;10.980;2022-10-26T08:00:53;11.80;99.90
29211;DHT22;16250;49.932;10.980;2022-10-26T08:03:20;11.70;99.90
29211;DHT22;16250;49.932;10.980;2022-10-26T08:05:46;11.80;99.90
29211;DHT22;16250;49.932;10.980;2022-10-26T08:08:12;11.70;99.90
29211;DHT22;16250;49.932;10.980;2022-10-26T08:10:42;11.70;99.90
29211;DHT22;16250;49.932;10.980;2022-10-26T08:13:08;11.70;99.90
29211;DHT22;16250;49.932;10.980;2022-10-26T08:15:34;11.80;99.90
29211;DHT22;16250;49.932;10.980;2022-10-26T08:17:59;11.90;99.90
29211;DHT22;16250;49.932;10.980;2022-10-26T08:20:25;11.70;99.90
29211;DHT22;16250;49.932;10.980;2022-10-26T08:22:50;11.70;99.90
29211;DHT22;16250;49.932;10.980;2022-10-26T08:25:17;11.80;99.90
29211;DHT22;16250;49.932;10.980;2022-10-26T08:27:43;11.90;99.90
29211;DHT22;16250;49.932;10.980;2022-10-26T08:30:08;11.90;99.90
29211;DHT22;16250;49.932;10.980;2022-10-26T08:32:34;12.00;99.90
29211;DHT22;16250;49.932;10.980;2022-10-26T08:35:00;12.20;99.90
29211;DHT22;16250;49.932;10.980;2022-10-26T08:37:26;12.30;99.90
29211;DHT22;16250;49.932;10.980;2022-10-26T08:39:52;12.40;99.90
29211;DHT22;16250;49.932;10.980;2022-10-26T08:42:33;12.50;99.90
29211;DHT22;16250;49.932;10.980;2022-10-26T08:45:09;12.50;99.90
29211;DHT22;16250;49.932;10.980;2022-10-26T08:47:43;12.70;99.90
29211;DHT22;16250;49.932;10.980;2022-10-26T08:50:34;12.80;99.90
29211;DHT22;16250;49.932;10.980;2022-10-26T08:53:13;12.80;99.90
29211;DHT22;16250;49.932;10.980;2022-10-26T08:55:45;13.00;99.90
29211;DHT22;16250;49.932;10.980;2022-10-26T08:58:17;13.10;99.90
29211;DHT22;16250;49.932;10.980;2022-10-26T09:00:44;13.30;99.90
29211;DHT22;16250;49.932;10.980;2022-10-26T09:03:15;13.40;99.90
29211;DHT22;16250;49.932;10.980;2022-10-26T09:05:45;13.50;99.90
29211;DHT22;16250;49.932;10.980;2022-10-26T09:14:07;13.80;99.90
29211;DHT22;16250;49.932;10.980;2022-10-26T09:16:56;13.90;99.90
29211;DHT22;16250;49.932;10.980;2022-10-26T09:22:49;14.00;99.90
29211;DHT22;16250;49.932;10.980;2022-10-26T09:25:22;13.90;99.90
29211;DHT22;16250;49.932;10.980;2022-10-26T09:27:59;14.00;99.90
29211;DHT22;16250;49.932;10.980;2022-10-26T09:30:25;14.00;99.90
29211;DHT22;16250;49.932;10.980;2022-10-26T09:32:58;13.90;99.90
29211;DHT22;16250;49.932;10.980;2022-10-26T09:35:26;13.90;99.90
29211;DHT22;16250;49.932;10.980;2022-10-26T09:38:02;13.80;99.90
29211;DHT22;16250;49.932;10.980;2022-10-26T09:45:59;13.70;99.90
29211;DHT22;16250;49.932;10.980;2022-10-26T09:48:42;13.70;99.90
29211;DHT22;16250;49.932;10.980;2022-10-26T09:51:09;13.80;99.90
29211;DHT22;16250;49.932;10.980;2022-10-26T09:53:36;13.90;99.90
29211;DHT22;16250;49.932;10.980;2022-10-26T09:56:13;13.90;99.90
29211;DHT22;16250;49.932;10.980;2022-10-26T09:59:00;14.00;99.90
29211;DHT22;16250;49.932;10.980;2022-10-26T10:01:28;14.00;99.90
29211;DHT22;16250;49.932;10.980;2022-10-26T10:06:43;14.10;99.90
29211;DHT22;16250;49.932;10.980;2022-10-26T10:11:50;14.10;99.90
29211;DHT22;16250;49.932;10.980;2022-10-26T10:14:23;14.30;99.90
29211;DHT22;16250;49.932;10.980;2022-10-26T10:16:57;14.40;99.90
29211;DHT22;16250;49.932;10.980;2022-10-26T10:19:34;14.60;99.90
29211;DHT22;16250;49.932;10.980;2022-10-26T10:24:35;14.70;99.90
29211;DHT22;16250;49.932;10.980;2022-10-26T10:27:19;14.90;99.90
29211;DHT22;16250;49.932;10.980;2022-10-26T10:29:46;15.00;99.90
29211;DHT22;16250;49.932;10.980;2022-10-26T10:32:17;15.10;99.90
29211;DHT22;16250;49.932;10.980;2022-10-26T10:34:45;15.30;99.90
29211;DHT22;16250;49.932;10.980;2022-10-26T10:37:32;15.10;99.90
29211;DHT22;16250;49.932;10.980;2022-10-26T10:40:06;15.40;99.90
29211;DHT22;16250;49.932;10.980;2022-10-26T10:42:37;15.40;99.90
29211;DHT22;16250;49.932;10.980;2022-10-26T10:45:05;15.60;99.90
29211;DHT22;16250;49.932;10.980;2022-10-26T10:47:33;15.70;99.90
29211;DHT22;16250;49.932;10.980;2022-10-26T10:50:19;15.60;99.90
29211;DHT22;16250;49.932;10.980;2022-10-26T10:52:45;15.50;99.90
29211;DHT22;16250;49.932;10.980;2022-10-26T10:58:06;15.60;99.90
29211;DHT22;16250;49.932;10.980;2022-10-26T11:00:36;15.70;99.90
29211;DHT22;16250;49.932;10.980;2022-10-26T11:06:23;15.90;99.90
29211;DHT22;16250;49.932;10.980;2022-10-26T11:08:58;16.00;99.90
29211;DHT22;16250;49.932;10.980;2022-10-26T11:11:32;16.10;99.90
29211;DHT22;16250;49.932;10.980;2022-10-26T11:14:04;16.10;99.90
29211;DHT22;16250;49.932;10.980;2022-10-26T11:16:38;16.10;99.90
29211;DHT22;16250;49.932;10.980;2022-10-26T11:19:21;16.00;99.90
29211;DHT22;16250;49.932;10.980;2022-10-26T11:21:54;16.10;99.90
29211;DHT22;16250;49.932;10.980;2022-10-26T11:24:30;16.20;99.90
29211;DHT22;16250;49.932;10.980;2022-10-26T11:26:59;16.40;99.90
29211;DHT22;16250;49.932;10.980;2022-10-26T11:32:27;17.00;99.90
29211;DHT22;16250;49.932;10.980;2022-10-26T11:45:44;17.70;99.90
29211;DHT22;16250;49.932;10.980;2022-10-26T11:48:30;18.30;99.90
29211;DHT22;16250;49.932;10.980;2022-10-26T11:50:58;17.80;99.90
29211;DHT22;16250;49.932;10.980;2022-10-26T11:53:28;17.40;99.90
29211;DHT22;16250;49.932;10.980;2022-10-26T11:55:57;17.50;99.90
29211;DHT22;16250;49.932;10.980;2022-10-26T11:58:25;17.30;99.90
29211;DHT22;16250;49.932;10.980;2022-10-26T12:01:00;17.20;99.90
29211;DHT22;16250;49.932;10.980;2022-10-26T12:03:33;17.00;99.90
29211;DHT22;16250;49.932;10.980;2022-10-26T12:06:02;17.10;99.90
29211;DHT22;16250;49.932;10.980;2022-10-26T12:08:46;17.50;99.90
29211;DHT22;16250;49.932;10.980;2022-10-26T12:14:18;16.90;99.90
29211;DHT22;16250;49.932;10.980;2022-10-26T12:19:25;17.30;99.90
29211;DHT22;16250;49.932;10.980;2022-10-26T12:21:54;17.30;99.90
29211;DHT22;16250;49.932;10.980;2022-10-26T12:26:58;17.10;99.90
29211;DHT22;16250;49.932;10.980;2022-10-26T12:29:37;17.00;99.90
29211;DHT22;16250;49.932;10.980;2022-10-26T12:32:50;17.00;99.90
29211;DHT22;16250;49.932;10.980;2022-10-26T12:42:56;17.10;99.90
29211;DHT22;16250;49.932;10.980;2022-10-26T12:45:22;17.10;99.90
29211;DHT22;16250;49.932;10.980;2022-10-26T13:01:07;17.50;99.90
29211;DHT22;16250;49.932;10.980;2022-10-26T13:03:58;17.30;99.90
29211;DHT22;16250;49.932;10.980;2022-10-26T13:06:40;17.20;99.90
29211;DHT22;16250;49.932;10.980;2022-10-26T13:09:26;17.10;99.90
29211;DHT22;16250;49.932;10.980;2022-10-26T13:11:55;17.20;99.90
29211;DHT22;16250;49.932;10.980;2022-10-26T13:14:31;17.20;99.90
29211;DHT22;16250;49.932;10.980;2022-10-26T13:17:00;17.20;99.90
29211;DHT22;16250;49.932;10.980;2022-10-26T13:19:31;17.50;99.90
29211;DHT22;16250;49.932;10.980;2022-10-26T13:22:03;17.70;99.90
29211;DHT22;16250;49.932;10.980;2022-10-26T13:24:30;17.30;99.90
29211;DHT22;16250;49.932;10.980;2022-10-26T13:32:41;17.80;99.90
29211;DHT22;16250;49.932;10.980;2022-10-26T13:35:13;17.70;99.90
29211;DHT22;16250;49.932;10.980;2022-10-26T13:37:45;17.80;99.90
29211;DHT22;16250;49.932;10.980;2022-10-26T13:40:16;17.80;99.90
29211;DHT22;16250;49.932;10.980;2022-10-26T13:42:56;17.70;99.90
29211;DHT22;16250;49.932;10.980;2022-10-26T13:45:27;17.70;99.90
29211;DHT22;16250;49.932;10.980;2022-10-26T13:48:02;17.90;99.90
29211;DHT22;16250;49.932;10.980;2022-10-26T13:50:47;18.00;99.90
29211;DHT22;16250;49.932;10.980;2022-10-26T13:53:40;18.10;99.90
29211;DHT22;16250;49.932;10.980;2022-10-26T13:56:27;18.00;99.90
29211;DHT22;16250;49.932;10.980;2022-10-26T13:59:11;17.90;99.90
29211;DHT22;16250;49.932;10.980;2022-10-26T14:01:37;17.90;99.90
29211;DHT22;16250;49.932;10.980;2022-10-26T14:04:17;17.90;99.90
29211;DHT22;16250;49.932;10.980;2022-10-26T14:06:48;17.90;99.90
29211;DHT22;16250;49.932;10.980;2022-10-26T14:09:16;17.70;99.90
29211;DHT22;16250;49.932;10.980;2022-10-26T14:14:16;18.10;99.90
29211;DHT22;16250;49.932;10.980;2022-10-26T14:16:42;18.20;99.90
29211;DHT22;16250;49.932;10.980;2022-10-26T14:19:37;18.10;99.90
29211;DHT22;16250;49.932;10.980;2022-10-26T14:22:04;18.00;99.90
29211;DHT22;16250;49.932;10.980;2022-10-26T14:24:31;17.80;99.90
29211;DHT22;16250;49.932;10.980;2022-10-26T14:26:58;17.70;99.90
29211;DHT22;16250;49.932;10.980;2022-10-26T14:29:26;17.60;99.90
29211;DHT22;16250;49.932;10.980;2022-10-26T14:31:52;17.50;99.90
29211;DHT22;16250;49.932;10.980;2022-10-26T14:34:21;17.50;99.90
29211;DHT22;16250;49.932;10.980;2022-10-26T14:37:00;17.30;99.90
29211;DHT22;16250;49.932;10.980;2022-10-26T14:39:36;17.50;99.90
29211;DHT22;16250;49.932;10.980;2022-10-26T14:42:57;17.40;99.90
29211;DHT22;16250;49.932;10.980;2022-10-26T14:45:28;17.30;99.90
29211;DHT22;16250;49.932;10.980;2022-10-26T14:47:55;17.20;99.90
29211;DHT22;16250;49.932;10.980;2022-10-26T14:50:23;17.30;99.90
29211;DHT22;16250;49.932;10.980;2022-10-26T14:52:57;17.10;99.90
29211;DHT22;16250;49.932;10.980;2022-10-26T14:55:25;17.10;99.90
29211;DHT22;16250;49.932;10.980;2022-10-26T14:58:06;17.10;99.90
29211;DHT22;16250;49.932;10.980;2022-10-26T15:00:33;17.00;99.90
29211;DHT22;16250;49.932;10.980;2022-10-26T15:02:59;16.90;99.90
29211;DHT22;16250;49.932;10.980;2022-10-26T15:05:28;16.60;99.90
29211;DHT22;16250;49.932;10.980;2022-10-26T15:07:56;16.70;99.90
29211;DHT22;16250;49.932;10.980;2022-10-26T15:13:10;16.80;99.90
29211;DHT22;16250;49.932;10.980;2022-10-26T15:15:42;16.70;99.90
29211;DHT22;16250;49.932;10.980;2022-10-26T15:18:40;16.50;99.90
29211;DHT22;16250;49.932;10.980;2022-10-26T15:21:21;16.60;99.90
29211;DHT22;16250;49.932;10.980;2022-10-26T15:23:48;16.60;99.90
29211;DHT22;16250;49.932;10.980;2022-10-26T15:26:14;16.60;99.90
29211;DHT22;16250;49.932;10.980;2022-10-26T15:28:40;16.50;99.90
29211;DHT22;16250;49.932;10.980;2022-10-26T15:33:36;16.50;99.90
29211;DHT22;16250;49.932;10.980;2022-10-26T15:36:11;16.40;99.90
29211;DHT22;16250;49.932;10.980;2022-10-26T15:38:38;16.30;99.90
29211;DHT22;16250;49.932;10.980;2022-10-26T15:41:04;16.20;99.90
29211;DHT22;16250;49.932;10.980;2022-10-26T15:43:30;16.20;99.90
29211;DHT22;16250;49.932;10.980;2022-10-26T15:45:56;16.00;99.90
29211;DHT22;16250;49.932;10.980;2022-10-26T15:48:23;15.90;99.90
29211;DHT22;16250;49.932;10.980;2022-10-26T15:50:51;15.90;99.90
29211;DHT22;16250;49.932;10.980;2022-10-26T15:53:19;15.90;99.90
29211;DHT22;16250;49.932;10.980;2022-10-26T15:55:46;15.90;99.90
29211;DHT22;16250;49.932;10.980;2022-10-26T15:58:12;15.80;99.90
29211;DHT22;16250;49.932;10.980;2022-10-26T16:00:38;15.80;99.90
29211;DHT22;16250;49.932;10.980;2022-10-26T16:03:04;15.80;99.90
29211;DHT22;16250;49.932;10.980;2022-10-26T16:05:29;15.80;99.90
29211;DHT22;16250;49.932;10.980;2022-10-26T16:07:55;15.80;99.90
29211;DHT22;16250;49.932;10.980;2022-10-26T16:10:22;15.80;99.90
29211;DHT22;16250;49.932;10.980;2022-10-26T16:12:49;15.70;99.90
29211;DHT22;16250;49.932;10.980;2022-10-26T16:15:20;15.70;99.90
29211;DHT22;16250;49.932;10.980;2022-10-26T16:17:46;15.60;99.90
29211;DHT22;16250;49.932;10.980;2022-10-26T16:20:15;15.50;99.90
29211;DHT22;16250;49.932;10.980;2022-10-26T16:22:41;15.60;99.90
29211;DHT22;16250;49.932;10.980;2022-10-26T16:25:11;15.50;99.90
29211;DHT22;16250;49.932;10.980;2022-10-26T16:27:37;15.50;99.90
29211;DHT22;16250;49.932;10.980;2022-10-26T16:30:03;15.40;99.90
29211;DHT22;16250;49.932;10.980;2022-10-26T16:32:29;15.50;99.90
29211;DHT22;16250;49.932;10.980;2022-10-26T16:34:54;15.30;99.90
29211;DHT22;16250;49.932;10.980;2022-10-26T16:37:20;15.50;99.90
29211;DHT22;16250;49.932;10.980;2022-10-26T16:39:45;15.50;99.90
29211;DHT22;16250;49.932;10.980;2022-10-26T16:42:11;15.60;99.90
29211;DHT22;16250;49.932;10.980;2022-10-26T16:44:36;15.50;99.90
29211;DHT22;16250;49.932;10.980;2022-10-26T16:47:02;15.50;99.90
29211;DHT22;16250;49.932;10.980;2022-10-26T16:49:28;15.60;99.90
29211;DHT22;16250;49.932;10.980;2022-10-26T16:51:53;15.60;99.90
29211;DHT22;16250;49.932;10.980;2022-10-26T16:54:20;15.60;99.90
29211;DHT22;16250;49.932;10.980;2022-10-26T16:56:45;15.60;99.90
29211;DHT22;16250;49.932;10.980;2022-10-26T16:59:11;15.90;99.90
29211;DHT22;16250;49.932;10.980;2022-10-26T17:01:36;15.60;99.90
29211;DHT22;16250;49.932;10.980;2022-10-26T17:04:02;15.60;99.90
29211;DHT22;16250;49.932;10.980;2022-10-26T17:06:28;15.60;99.90
29211;DHT22;16250;49.932;10.980;2022-10-26T17:08:53;15.60;99.90
29211;DHT22;16250;49.932;10.980;2022-10-26T17:11:20;15.50;99.90
29211;DHT22;16250;49.932;10.980;2022-10-26T17:13:46;15.50;99.90
29211;DHT22;16250;49.932;10.980;2022-10-26T17:16:17;15.40;99.90
29211;DHT22;16250;49.932;10.980;2022-10-26T17:18:44;15.40;99.90
29211;DHT22;16250;49.932;10.980;2022-10-26T17:21:11;15.50;99.90
29211;DHT22;16250;49.932;10.980;2022-10-26T17:23:37;15.40;99.90
29211;DHT22;16250;49.932;10.980;2022-10-26T17:26:05;15.50;99.90
29211;DHT22;16250;49.932;10.980;2022-10-26T17:28:31;15.50;99.90
29211;DHT22;16250;49.932;10.980;2022-10-26T17:31:10;15.50;99.90
29211;DHT22;16250;49.932;10.980;2022-10-26T17:33:37;15.60;99.90
29211;DHT22;16250;49.932;10.980;2022-10-26T17:36:05;15.20;99.90
29211;DHT22;16250;49.932;10.980;2022-10-26T17:38:36;15.20;99.90